sensor_id;sensor_type;location;lat;lon;timestamp;P1;durP1;ratioP1;P2;durP2;ratioP2
23702;SDS011;12030;50.376;8.762;2022-07-09T00:01:59;2.30;;;0.90;;
23702;SDS011;12030;50.376;8.762;2022-07-09T00:04:25;1.33;;;0.90;;
23702;SDS011;12030;50.376;8.762;2022-07-09T00:06:50;2.13;;;0.80;;
23702;SDS011;12030;50.376;8.762;2022-07-09T00:09:16;2.33;;;0.90;;
23702;SDS011;12030;50.376;8.762;2022-07-09T00:11:41;2.90;;;1.10;;
23702;SDS011;12030;50.376;8.762;2022-07-09T00:14:08;1.77;;;0.90;;
23702;SDS011;12030;50.376;8.762;2022-07-09T00:16:33;1.00;;;0.80;;
23702;SDS011;12030;50.376;8.762;2022-07-09T00:18:59;1.27;;;0.80;;
23702;SDS011;12030;50.376;8.762;2022-07-09T00:21:24;1.50;;;0.80;;
23702;SDS011;12030;50.376;8.762;2022-07-09T00:23:50;0.83;;;0.73;;
23702;SDS011;12030;50.376;8.762;2022-07-09T00:26:15;2.07;;;0.80;;
23702;SDS011;12030;50.376;8.762;2022-07-09T00:28:43;0.97;;;0.50;;
23702;SDS011;12030;50.376;8.762;2022-07-09T00:31:08;0.87;;;0.70;;
23702;SDS011;12030;50.376;8.762;2022-07-09T00:33:35;0.80;;;0.70;;
23702;SDS011;12030;50.376;8.762;2022-07-09T00:36:00;2.03;;;0.80;;
23702;SDS011;12030;50.376;8.762;2022-07-09T00:38:26;3.70;;;0.70;;
23702;SDS011;12030;50.376;8.762;2022-07-09T00:40:51;1.90;;;0.73;;
23702;SDS011;12030;50.376;8.762;2022-07-09T00:43:18;1.07;;;0.80;;
23702;SDS011;12030;50.376;8.762;2022-07-09T00:45:45;3.07;;;0.60;;
23702;SDS011;12030;50.376;8.762;2022-07-09T00:48:11;3.40;;;0.80;;
23702;SDS011;12030;50.376;8.762;2022-07-09T00:50:37;1.50;;;1.00;;
23702;SDS011;12030;50.376;8.762;2022-07-09T00:53:05;1.40;;;1.03;;
23702;SDS011;12030;50.376;8.762;2022-07-09T00:55:33;1.70;;;1.07;;
23702;SDS011;12030;50.376;8.762;2022-07-09T00:58:00;4.13;;;1.17;;
23702;SDS011;12030;50.376;8.762;2022-07-09T01:00:26;2.63;;;1.03;;
23702;SDS011;12030;50.376;8.762;2022-07-09T01:02:52;1.93;;;0.70;;
23702;SDS011;12030;50.376;8.762;2022-07-09T01:05:18;1.63;;;0.90;;
23702;SDS011;12030;50.376;8.762;2022-07-09T01:07:43;2.20;;;0.83;;
23702;SDS011;12030;50.376;8.762;2022-07-09T01:10:09;1.43;;;0.90;;
23702;SDS011;12030;50.376;8.762;2022-07-09T01:12:35;2.00;;;1.10;;
23702;SDS011;12030;50.376;8.762;2022-07-09T01:15:00;1.63;;;0.93;;
23702;SDS011;12030;50.376;8.762;2022-07-09T01:17:26;1.80;;;0.80;;
23702;SDS011;12030;50.376;8.762;2022-07-09T01:19:52;3.03;;;1.00;;
23702;SDS011;12030;50.376;8.762;2022-07-09T01:22:19;4.00;;;1.15;;
23702;SDS011;12030;50.376;8.762;2022-07-09T01:24:44;3.08;;;0.80;;
23702;SDS011;12030;50.376;8.762;2022-07-09T01:27:11;1.13;;;0.70;;
23702;SDS011;12030;50.376;8.762;2022-07-09T01:29:37;2.40;;;0.93;;
23702;SDS011;12030;50.376;8.762;2022-07-09T01:32:03;3.33;;;1.03;;
23702;SDS011;12030;50.376;8.762;2022-07-09T01:34:29;1.27;;;0.95;;
23702;SDS011;12030;50.376;8.762;2022-07-09T01:36:54;2.30;;;0.98;;
23702;SDS011;12030;50.376;8.762;2022-07-09T01:39:20;1.63;;;0.90;;
23702;SDS011;12030;50.376;8.762;2022-07-09T01:41:45;1.33;;;0.90;;
23702;SDS011;12030;50.376;8.762;2022-07-09T01:44:11;1.13;;;0.90;;
23702;SDS011;12030;50.376;8.762;2022-07-09T01:46:36;1.80;;;0.90;;
23702;SDS011;12030;50.376;8.762;2022-07-09T01:49:02;4.03;;;0.90;;
23702;SDS011;12030;50.376;8.762;2022-07-09T01:51:29;2.23;;;0.60;;
23702;SDS011;12030;50.376;8.762;2022-07-09T01:53:54;1.63;;;0.60;;
23702;SDS011;12030;50.376;8.762;2022-07-09T01:56:20;1.67;;;0.80;;
23702;SDS011;12030;50.376;8.762;2022-07-09T01:58:45;3.47;;;0.80;;
23702;SDS011;12030;50.376;8.762;2022-07-09T02:01:11;2.40;;;0.90;;
23702;SDS011;12030;50.376;8.762;2022-07-09T02:03:37;2.28;;;0.88;;
23702;SDS011;12030;50.376;8.762;2022-07-09T02:06:02;2.38;;;0.98;;
23702;SDS011;12030;50.376;8.762;2022-07-09T02:08:28;1.33;;;0.90;;
23702;SDS011;12030;50.376;8.762;2022-07-09T02:10:54;1.95;;;0.80;;
23702;SDS011;12030;50.376;8.762;2022-07-09T02:13:19;2.67;;;1.17;;
23702;SDS011;12030;50.376;8.762;2022-07-09T02:15:45;1.38;;;0.90;;
23702;SDS011;12030;50.376;8.762;2022-07-09T02:18:11;2.07;;;0.80;;
23702;SDS011;12030;50.376;8.762;2022-07-09T02:20:37;1.10;;;1.00;;
23702;SDS011;12030;50.376;8.762;2022-07-09T02:23:03;2.53;;;0.97;;
23702;SDS011;12030;50.376;8.762;2022-07-09T02:25:28;1.30;;;1.10;;
23702;SDS011;12030;50.376;8.762;2022-07-09T02:27:54;1.07;;;0.90;;
23702;SDS011;12030;50.376;8.762;2022-07-09T02:30:20;1.20;;;1.00;;
23702;SDS011;12030;50.376;8.762;2022-07-09T02:32:45;1.83;;;1.10;;
23702;SDS011;12030;50.376;8.762;2022-07-09T02:35:11;1.40;;;0.88;;
23702;SDS011;12030;50.376;8.762;2022-07-09T02:37:36;2.97;;;1.30;;
23702;SDS011;12030;50.376;8.762;2022-07-09T02:40:02;2.42;;;1.40;;
23702;SDS011;12030;50.376;8.762;2022-07-09T02:42:29;2.03;;;1.00;;
23702;SDS011;12030;50.376;8.762;2022-07-09T02:44:54;1.87;;;0.90;;
23702;SDS011;12030;50.376;8.762;2022-07-09T02:47:20;0.93;;;0.83;;
23702;SDS011;12030;50.376;8.762;2022-07-09T02:49:45;1.77;;;0.90;;
23702;SDS011;12030;50.376;8.762;2022-07-09T02:52:11;1.50;;;0.85;;
23702;SDS011;12030;50.376;8.762;2022-07-09T02:54:36;1.00;;;0.90;;
23702;SDS011;12030;50.376;8.762;2022-07-09T02:57:02;1.58;;;0.98;;
23702;SDS011;12030;50.376;8.762;2022-07-09T02:59:28;1.37;;;0.87;;
23702;SDS011;12030;50.376;8.762;2022-07-09T03:01:53;2.20;;;1.08;;
23702;SDS011;12030;50.376;8.762;2022-07-09T03:04:19;2.15;;;1.10;;
23702;SDS011;12030;50.376;8.762;2022-07-09T03:06:44;1.37;;;1.10;;
23702;SDS011;12030;50.376;8.762;2022-07-09T03:09:10;2.50;;;1.00;;
23702;SDS011;12030;50.376;8.762;2022-07-09T03:11:36;2.03;;;0.90;;
23702;SDS011;12030;50.376;8.762;2022-07-09T03:14:01;1.05;;;0.80;;
23702;SDS011;12030;50.376;8.762;2022-07-09T03:16:27;1.50;;;0.90;;
23702;SDS011;12030;50.376;8.762;2022-07-09T03:18:52;2.00;;;1.07;;
23702;SDS011;12030;50.376;8.762;2022-07-09T03:21:18;1.97;;;1.10;;
23702;SDS011;12030;50.376;8.762;2022-07-09T03:23:43;1.70;;;0.90;;
23702;SDS011;12030;50.376;8.762;2022-07-09T03:26:09;1.20;;;0.90;;
23702;SDS011;12030;50.376;8.762;2022-07-09T03:28:35;2.35;;;0.98;;
23702;SDS011;12030;50.376;8.762;2022-07-09T03:31:00;2.80;;;1.05;;
23702;SDS011;12030;50.376;8.762;2022-07-09T03:33:26;2.40;;;0.90;;
23702;SDS011;12030;50.376;8.762;2022-07-09T03:35:55;1.50;;;0.98;;
23702;SDS011;12030;50.376;8.762;2022-07-09T03:38:21;4.17;;;1.10;;
23702;SDS011;12030;50.376;8.762;2022-07-09T03:40:48;2.15;;;1.08;;
23702;SDS011;12030;50.376;8.762;2022-07-09T03:43:14;2.45;;;1.10;;
23702;SDS011;12030;50.376;8.762;2022-07-09T03:45:39;3.03;;;1.30;;
23702;SDS011;12030;50.376;8.762;2022-07-09T03:48:05;1.77;;;1.20;;
23702;SDS011;12030;50.376;8.762;2022-07-09T03:50:31;2.20;;;1.17;;
23702;SDS011;12030;50.376;8.762;2022-07-09T03:52:56;2.73;;;1.10;;
23702;SDS011;12030;50.376;8.762;2022-07-09T03:55:22;2.50;;;0.87;;
23702;SDS011;12030;50.376;8.762;2022-07-09T03:57:48;1.25;;;0.90;;
23702;SDS011;12030;50.376;8.762;2022-07-09T04:00:14;1.60;;;0.80;;
23702;SDS011;12030;50.376;8.762;2022-07-09T04:02:40;2.60;;;0.95;;
23702;SDS011;12030;50.376;8.762;2022-07-09T04:05:06;1.23;;;0.90;;
23702;SDS011;12030;50.376;8.762;2022-07-09T04:07:32;1.55;;;1.00;;
23702;SDS011;12030;50.376;8.762;2022-07-09T04:09:58;2.03;;;1.00;;
23702;SDS011;12030;50.376;8.762;2022-07-09T04:12:23;1.23;;;0.80;;
23702;SDS011;12030;50.376;8.762;2022-07-09T04:14:49;2.70;;;1.37;;
23702;SDS011;12030;50.376;8.762;2022-07-09T04:17:14;1.40;;;0.98;;
23702;SDS011;12030;50.376;8.762;2022-07-09T04:19:40;1.67;;;1.15;;
23702;SDS011;12030;50.376;8.762;2022-07-09T04:22:05;2.03;;;0.98;;
23702;SDS011;12030;50.376;8.762;2022-07-09T04:24:31;2.03;;;1.17;;
23702;SDS011;12030;50.376;8.762;2022-07-09T04:26:56;1.77;;;1.03;;
23702;SDS011;12030;50.376;8.762;2022-07-09T04:29:22;1.20;;;1.00;;
23702;SDS011;12030;50.376;8.762;2022-07-09T04:31:48;2.05;;;0.98;;
23702;SDS011;12030;50.376;8.762;2022-07-09T04:34:13;1.67;;;1.20;;
23702;SDS011;12030;50.376;8.762;2022-07-09T04:36:39;1.87;;;1.37;;
23702;SDS011;12030;50.376;8.762;2022-07-09T04:39:04;1.27;;;1.17;;
23702;SDS011;12030;50.376;8.762;2022-07-09T04:41:30;3.35;;;1.38;;
23702;SDS011;12030;50.376;8.762;2022-07-09T04:43:56;2.00;;;1.58;;
23702;SDS011;12030;50.376;8.762;2022-07-09T04:46:22;2.57;;;1.30;;
23702;SDS011;12030;50.376;8.762;2022-07-09T04:48:48;1.20;;;1.10;;
23702;SDS011;12030;50.376;8.762;2022-07-09T04:51:13;2.10;;;1.38;;
23702;SDS011;12030;50.376;8.762;2022-07-09T04:53:39;1.93;;;1.60;;
23702;SDS011;12030;50.376;8.762;2022-07-09T04:56:05;3.35;;;1.40;;
23702;SDS011;12030;50.376;8.762;2022-07-09T04:58:31;4.13;;;1.30;;
23702;SDS011;12030;50.376;8.762;2022-07-09T05:00:57;1.77;;;1.40;;
23702;SDS011;12030;50.376;8.762;2022-07-09T05:03:23;4.13;;;1.67;;
23702;SDS011;12030;50.376;8.762;2022-07-09T05:05:49;2.03;;;1.60;;
23702;SDS011;12030;50.376;8.762;2022-07-09T05:08:15;3.40;;;1.60;;
23702;SDS011;12030;50.376;8.762;2022-07-09T05:10:41;2.28;;;1.50;;
23702;SDS011;12030;50.376;8.762;2022-07-09T05:13:07;2.43;;;1.40;;
23702;SDS011;12030;50.376;8.762;2022-07-09T05:15:33;2.17;;;1.55;;
23702;SDS011;12030;50.376;8.762;2022-07-09T05:17:58;2.53;;;1.27;;
23702;SDS011;12030;50.376;8.762;2022-07-09T05:20:24;2.50;;;1.73;;
23702;SDS011;12030;50.376;8.762;2022-07-09T05:22:50;2.63;;;1.70;;
23702;SDS011;12030;50.376;8.762;2022-07-09T05:25:15;1.30;;;1.20;;
23702;SDS011;12030;50.376;8.762;2022-07-09T05:27:42;1.73;;;1.17;;
23702;SDS011;12030;50.376;8.762;2022-07-09T05:30:09;1.97;;;1.20;;
23702;SDS011;12030;50.376;8.762;2022-07-09T05:32:35;4.23;;;1.30;;
23702;SDS011;12030;50.376;8.762;2022-07-09T05:35:01;1.30;;;1.10;;
23702;SDS011;12030;50.376;8.762;2022-07-09T05:37:26;5.27;;;1.40;;
23702;SDS011;12030;50.376;8.762;2022-07-09T05:39:52;2.50;;;1.30;;
23702;SDS011;12030;50.376;8.762;2022-07-09T05:42:17;2.20;;;1.27;;
23702;SDS011;12030;50.376;8.762;2022-07-09T05:44:43;2.57;;;1.57;;
23702;SDS011;12030;50.376;8.762;2022-07-09T05:47:08;3.27;;;1.37;;
23702;SDS011;12030;50.376;8.762;2022-07-09T05:49:34;2.47;;;1.63;;
23702;SDS011;12030;50.376;8.762;2022-07-09T05:51:59;2.87;;;1.30;;
23702;SDS011;12030;50.376;8.762;2022-07-09T05:54:25;3.30;;;1.33;;
23702;SDS011;12030;50.376;8.762;2022-07-09T05:56:50;1.40;;;1.30;;
23702;SDS011;12030;50.376;8.762;2022-07-09T05:59:16;2.27;;;1.50;;
23702;SDS011;12030;50.376;8.762;2022-07-09T06:01:41;2.47;;;1.60;;
23702;SDS011;12030;50.376;8.762;2022-07-09T06:04:07;2.13;;;1.33;;
23702;SDS011;12030;50.376;8.762;2022-07-09T06:06:33;6.13;;;1.30;;
23702;SDS011;12030;50.376;8.762;2022-07-09T06:08:59;1.87;;;1.27;;
23702;SDS011;12030;50.376;8.762;2022-07-09T06:11:25;2.88;;;1.70;;
23702;SDS011;12030;50.376;8.762;2022-07-09T06:13:51;3.43;;;1.33;;
23702;SDS011;12030;50.376;8.762;2022-07-09T06:16:16;4.33;;;1.77;;
23702;SDS011;12030;50.376;8.762;2022-07-09T06:18:42;4.17;;;1.20;;
23702;SDS011;12030;50.376;8.762;2022-07-09T06:21:07;3.37;;;1.40;;
23702;SDS011;12030;50.376;8.762;2022-07-09T06:23:33;1.87;;;1.30;;
23702;SDS011;12030;50.376;8.762;2022-07-09T06:25:58;1.63;;;1.37;;
23702;SDS011;12030;50.376;8.762;2022-07-09T06:28:24;1.97;;;1.40;;
23702;SDS011;12030;50.376;8.762;2022-07-09T06:30:49;2.93;;;1.50;;
23702;SDS011;12030;50.376;8.762;2022-07-09T06:33:15;5.00;;;1.60;;
23702;SDS011;12030;50.376;8.762;2022-07-09T06:35:41;1.63;;;1.40;;
23702;SDS011;12030;50.376;8.762;2022-07-09T06:38:07;2.07;;;1.43;;
23702;SDS011;12030;50.376;8.762;2022-07-09T06:40:32;1.67;;;1.37;;
23702;SDS011;12030;50.376;8.762;2022-07-09T06:42:59;3.33;;;1.37;;
23702;SDS011;12030;50.376;8.762;2022-07-09T06:45:24;1.40;;;1.20;;
23702;SDS011;12030;50.376;8.762;2022-07-09T06:47:50;6.13;;;1.60;;
23702;SDS011;12030;50.376;8.762;2022-07-09T06:50:17;4.27;;;1.67;;
23702;SDS011;12030;50.376;8.762;2022-07-09T06:52:43;2.07;;;1.87;;
23702;SDS011;12030;50.376;8.762;2022-07-09T06:55:09;2.60;;;1.40;;
23702;SDS011;12030;50.376;8.762;2022-07-09T06:57:35;4.57;;;2.00;;
23702;SDS011;12030;50.376;8.762;2022-07-09T07:00:01;8.83;;;1.80;;
23702;SDS011;12030;50.376;8.762;2022-07-09T07:02:28;5.20;;;1.60;;
23702;SDS011;12030;50.376;8.762;2022-07-09T07:04:53;4.27;;;1.70;;
23702;SDS011;12030;50.376;8.762;2022-07-09T07:07:19;4.53;;;1.23;;
23702;SDS011;12030;50.376;8.762;2022-07-09T07:09:45;4.43;;;1.73;;
23702;SDS011;12030;50.376;8.762;2022-07-09T07:12:10;5.10;;;1.73;;
23702;SDS011;12030;50.376;8.762;2022-07-09T07:14:36;4.93;;;2.13;;
23702;SDS011;12030;50.376;8.762;2022-07-09T07:17:02;3.47;;;1.60;;
23702;SDS011;12030;50.376;8.762;2022-07-09T07:19:27;2.53;;;1.57;;
23702;SDS011;12030;50.376;8.762;2022-07-09T07:21:53;6.80;;;2.00;;
23702;SDS011;12030;50.376;8.762;2022-07-09T07:24:19;3.33;;;1.80;;
23702;SDS011;12030;50.376;8.762;2022-07-09T07:26:45;4.23;;;1.77;;
23702;SDS011;12030;50.376;8.762;2022-07-09T07:29:10;4.30;;;1.80;;
23702;SDS011;12030;50.376;8.762;2022-07-09T07:31:36;1.97;;;1.53;;
23702;SDS011;12030;50.376;8.762;2022-07-09T07:34:02;4.10;;;2.07;;
23702;SDS011;12030;50.376;8.762;2022-07-09T07:36:27;2.93;;;1.80;;
23702;SDS011;12030;50.376;8.762;2022-07-09T07:38:53;5.07;;;1.63;;
23702;SDS011;12030;50.376;8.762;2022-07-09T07:41:19;3.07;;;2.10;;
23702;SDS011;12030;50.376;8.762;2022-07-09T07:43:45;4.87;;;2.30;;
23702;SDS011;12030;50.376;8.762;2022-07-09T07:46:11;5.27;;;2.77;;
23702;SDS011;12030;50.376;8.762;2022-07-09T07:48:37;7.37;;;2.83;;
23702;SDS011;12030;50.376;8.762;2022-07-09T07:51:05;5.85;;;2.75;;
23702;SDS011;12030;50.376;8.762;2022-07-09T07:53:31;4.87;;;2.73;;
23702;SDS011;12030;50.376;8.762;2022-07-09T07:55:58;4.45;;;2.50;;
23702;SDS011;12030;50.376;8.762;2022-07-09T07:58:30;4.20;;;2.20;;
23702;SDS011;12030;50.376;8.762;2022-07-09T08:00:56;4.43;;;2.10;;
23702;SDS011;12030;50.376;8.762;2022-07-09T08:03:22;5.60;;;2.35;;
23702;SDS011;12030;50.376;8.762;2022-07-09T08:05:48;4.60;;;1.90;;
23702;SDS011;12030;50.376;8.762;2022-07-09T08:08:13;4.33;;;1.93;;
23702;SDS011;12030;50.376;8.762;2022-07-09T08:10:39;5.37;;;1.97;;
23702;SDS011;12030;50.376;8.762;2022-07-09T08:13:04;3.87;;;1.60;;
23702;SDS011;12030;50.376;8.762;2022-07-09T08:15:30;4.17;;;1.90;;
23702;SDS011;12030;50.376;8.762;2022-07-09T08:17:56;4.20;;;1.75;;
23702;SDS011;12030;50.376;8.762;2022-07-09T08:20:21;3.67;;;1.60;;
23702;SDS011;12030;50.376;8.762;2022-07-09T08:22:47;3.92;;;1.40;;
23702;SDS011;12030;50.376;8.762;2022-07-09T08:25:12;2.92;;;1.50;;
23702;SDS011;12030;50.376;8.762;2022-07-09T08:27:38;4.25;;;1.90;;
23702;SDS011;12030;50.376;8.762;2022-07-09T08:30:05;4.93;;;1.58;;
23702;SDS011;12030;50.376;8.762;2022-07-09T08:32:32;1.48;;;0.93;;
23702;SDS011;12030;50.376;8.762;2022-07-09T08:34:57;2.30;;;1.10;;
23702;SDS011;12030;50.376;8.762;2022-07-09T08:37:23;2.37;;;1.27;;
23702;SDS011;12030;50.376;8.762;2022-07-09T08:39:48;3.17;;;0.90;;
23702;SDS011;12030;50.376;8.762;2022-07-09T08:42:14;3.20;;;1.23;;
23702;SDS011;12030;50.376;8.762;2022-07-09T08:44:40;2.80;;;1.00;;
23702;SDS011;12030;50.376;8.762;2022-07-09T08:47:11;2.38;;;1.20;;
23702;SDS011;12030;50.376;8.762;2022-07-09T08:49:37;2.90;;;1.23;;
23702;SDS011;12030;50.376;8.762;2022-07-09T08:52:03;2.92;;;1.33;;
23702;SDS011;12030;50.376;8.762;2022-07-09T08:54:31;2.53;;;1.38;;
23702;SDS011;12030;50.376;8.762;2022-07-09T08:56:58;2.90;;;1.00;;
23702;SDS011;12030;50.376;8.762;2022-07-09T08:59:23;2.10;;;1.20;;
23702;SDS011;12030;50.376;8.762;2022-07-09T09:01:49;3.50;;;1.30;;
23702;SDS011;12030;50.376;8.762;2022-07-09T09:04:15;1.70;;;1.05;;
23702;SDS011;12030;50.376;8.762;2022-07-09T09:06:41;2.90;;;1.13;;
23702;SDS011;12030;50.376;8.762;2022-07-09T09:09:07;2.77;;;1.00;;
23702;SDS011;12030;50.376;8.762;2022-07-09T09:11:33;2.13;;;1.20;;
23702;SDS011;12030;50.376;8.762;2022-07-09T09:14:01;1.55;;;1.08;;
23702;SDS011;12030;50.376;8.762;2022-07-09T09:16:27;3.20;;;0.95;;
23702;SDS011;12030;50.376;8.762;2022-07-09T09:18:53;2.08;;;0.95;;
23702;SDS011;12030;50.376;8.762;2022-07-09T09:21:20;1.80;;;0.98;;
23702;SDS011;12030;50.376;8.762;2022-07-09T09:23:51;3.50;;;1.03;;
23702;SDS011;12030;50.376;8.762;2022-07-09T09:26:18;2.92;;;0.98;;
23702;SDS011;12030;50.376;8.762;2022-07-09T09:31:18;1.53;;;1.00;;
23702;SDS011;12030;50.376;8.762;2022-07-09T09:33:49;4.83;;;1.70;;
23702;SDS011;12030;50.376;8.762;2022-07-09T09:38:53;3.60;;;1.50;;
23702;SDS011;12030;50.376;8.762;2022-07-09T09:41:25;3.50;;;1.60;;
23702;SDS011;12030;50.376;8.762;2022-07-09T09:43:51;2.92;;;2.10;;
23702;SDS011;12030;50.376;8.762;2022-07-09T09:46:20;5.45;;;2.28;;
23702;SDS011;12030;50.376;8.762;2022-07-09T09:48:45;4.55;;;2.00;;
23702;SDS011;12030;50.376;8.762;2022-07-09T09:51:12;2.83;;;1.98;;
23702;SDS011;12030;50.376;8.762;2022-07-09T09:53:41;4.60;;;1.75;;
23702;SDS011;12030;50.376;8.762;2022-07-09T09:56:07;2.63;;;1.70;;
23702;SDS011;12030;50.376;8.762;2022-07-09T09:58:34;2.90;;;1.57;;
23702;SDS011;12030;50.376;8.762;2022-07-09T10:01:00;2.35;;;1.67;;
23702;SDS011;12030;50.376;8.762;2022-07-09T10:03:27;4.00;;;1.63;;
23702;SDS011;12030;50.376;8.762;2022-07-09T10:05:52;3.05;;;1.63;;
23702;SDS011;12030;50.376;8.762;2022-07-09T10:08:18;3.60;;;1.80;;
23702;SDS011;12030;50.376;8.762;2022-07-09T10:10:50;4.40;;;1.83;;
23702;SDS011;12030;50.376;8.762;2022-07-09T10:13:22;2.03;;;1.70;;
23702;SDS011;12030;50.376;8.762;2022-07-09T10:15:48;4.68;;;1.83;;
23702;SDS011;12030;50.376;8.762;2022-07-09T10:18:16;3.80;;;1.97;;
23702;SDS011;12030;50.376;8.762;2022-07-09T10:20:43;3.75;;;1.88;;
23702;SDS011;12030;50.376;8.762;2022-07-09T10:23:19;3.55;;;2.05;;
23702;SDS011;12030;50.376;8.762;2022-07-09T10:25:49;4.50;;;2.17;;
23702;SDS011;12030;50.376;8.762;2022-07-09T10:28:18;3.60;;;1.60;;
23702;SDS011;12030;50.376;8.762;2022-07-09T10:30:44;2.50;;;1.60;;
23702;SDS011;12030;50.376;8.762;2022-07-09T10:33:20;1.88;;;1.63;;
23702;SDS011;12030;50.376;8.762;2022-07-09T10:35:52;4.13;;;1.77;;
23702;SDS011;12030;50.376;8.762;2022-07-09T10:38:18;2.60;;;1.50;;
23702;SDS011;12030;50.376;8.762;2022-07-09T10:40:55;3.58;;;1.50;;
23702;SDS011;12030;50.376;8.762;2022-07-09T10:46:10;2.00;;;1.52;;
23702;SDS011;12030;50.376;8.762;2022-07-09T10:48:37;2.35;;;1.50;;
23702;SDS011;12030;50.376;8.762;2022-07-09T10:51:03;1.92;;;1.50;;
23702;SDS011;12030;50.376;8.762;2022-07-09T10:53:29;2.45;;;1.58;;
23702;SDS011;12030;50.376;8.762;2022-07-09T10:55:55;2.70;;;1.53;;
23702;SDS011;12030;50.376;8.762;2022-07-09T10:58:21;1.63;;;1.10;;
23702;SDS011;12030;50.376;8.762;2022-07-09T11:00:56;1.85;;;1.30;;
23702;SDS011;12030;50.376;8.762;2022-07-09T11:03:29;2.17;;;1.15;;
23702;SDS011;12030;50.376;8.762;2022-07-09T11:05:56;1.60;;;1.00;;
23702;SDS011;12030;50.376;8.762;2022-07-09T11:08:22;2.08;;;1.17;;
23702;SDS011;12030;50.376;8.762;2022-07-09T11:10:48;1.40;;;1.10;;
23702;SDS011;12030;50.376;8.762;2022-07-09T11:13:14;1.00;;;0.90;;
23702;SDS011;12030;50.376;8.762;2022-07-09T11:15:40;1.80;;;1.00;;
23702;SDS011;12030;50.376;8.762;2022-07-09T11:18:06;2.70;;;1.23;;
23702;SDS011;12030;50.376;8.762;2022-07-09T11:20:37;2.28;;;1.10;;
23702;SDS011;12030;50.376;8.762;2022-07-09T11:23:11;2.30;;;1.00;;
23702;SDS011;12030;50.376;8.762;2022-07-09T11:25:37;1.17;;;1.05;;
23702;SDS011;12030;50.376;8.762;2022-07-09T11:28:03;1.17;;;1.00;;
23702;SDS011;12030;50.376;8.762;2022-07-09T11:30:29;1.05;;;0.95;;
23702;SDS011;12030;50.376;8.762;2022-07-09T11:32:55;1.33;;;1.10;;
23702;SDS011;12030;50.376;8.762;2022-07-09T11:35:27;1.90;;;1.00;;
23702;SDS011;12030;50.376;8.762;2022-07-09T11:38:01;0.90;;;0.80;;
23702;SDS011;12030;50.376;8.762;2022-07-09T11:40:28;2.17;;;1.10;;
23702;SDS011;12030;50.376;8.762;2022-07-09T11:42:54;1.27;;;1.10;;
23702;SDS011;12030;50.376;8.762;2022-07-09T11:45:23;1.38;;;1.17;;
23702;SDS011;12030;50.376;8.762;2022-07-09T11:48:03;1.57;;;1.20;;
23702;SDS011;12030;50.376;8.762;2022-07-09T11:50:33;1.73;;;1.20;;
23702;SDS011;12030;50.376;8.762;2022-07-09T11:53:07;2.03;;;1.17;;
23702;SDS011;12030;50.376;8.762;2022-07-09T11:55:58;1.27;;;0.95;;
23702;SDS011;12030;50.376;8.762;2022-07-09T11:58:25;2.20;;;0.98;;
23702;SDS011;12030;50.376;8.762;2022-07-09T12:00:51;1.05;;;0.90;;
23702;SDS011;12030;50.376;8.762;2022-07-09T12:03:23;1.27;;;0.90;;
23702;SDS011;12030;50.376;8.762;2022-07-09T12:05:50;0.95;;;0.70;;
23702;SDS011;12030;50.376;8.762;2022-07-09T12:08:25;0.90;;;0.70;;
23702;SDS011;12030;50.376;8.762;2022-07-09T12:10:51;0.77;;;0.75;;
23702;SDS011;12030;50.376;8.762;2022-07-09T12:13:17;0.65;;;0.65;;
23702;SDS011;12030;50.376;8.762;2022-07-09T12:15:43;1.40;;;0.88;;
23702;SDS011;12030;50.376;8.762;2022-07-09T12:18:08;1.10;;;0.90;;
23702;SDS011;12030;50.376;8.762;2022-07-09T12:20:34;1.52;;;0.90;;
23702;SDS011;12030;50.376;8.762;2022-07-09T12:22:59;1.60;;;0.80;;
23702;SDS011;12030;50.376;8.762;2022-07-09T12:25:25;1.70;;;0.90;;
23702;SDS011;12030;50.376;8.762;2022-07-09T12:27:51;1.00;;;0.80;;
23702;SDS011;12030;50.376;8.762;2022-07-09T12:30:16;1.98;;;0.85;;
23702;SDS011;12030;50.376;8.762;2022-07-09T12:32:42;1.30;;;0.70;;
23702;SDS011;12030;50.376;8.762;2022-07-09T12:35:09;0.93;;;0.80;;
23702;SDS011;12030;50.376;8.762;2022-07-09T12:37:35;0.85;;;0.80;;
23702;SDS011;12030;50.376;8.762;2022-07-09T12:40:05;1.00;;;0.90;;
23702;SDS011;12030;50.376;8.762;2022-07-09T12:42:32;1.17;;;1.00;;
23702;SDS011;12030;50.376;8.762;2022-07-09T12:44:57;1.15;;;1.05;;
23702;SDS011;12030;50.376;8.762;2022-07-09T12:47:23;1.50;;;1.08;;
23702;SDS011;12030;50.376;8.762;2022-07-09T12:49:49;2.28;;;0.98;;
23702;SDS011;12030;50.376;8.762;2022-07-09T12:52:14;1.73;;;1.00;;
23702;SDS011;12030;50.376;8.762;2022-07-09T12:54:40;1.07;;;0.97;;
23702;SDS011;12030;50.376;8.762;2022-07-09T12:57:05;1.00;;;0.90;;
23702;SDS011;12030;50.376;8.762;2022-07-09T12:59:31;1.25;;;1.00;;
23702;SDS011;12030;50.376;8.762;2022-07-09T13:01:57;2.60;;;1.00;;
23702;SDS011;12030;50.376;8.762;2022-07-09T13:04:23;1.50;;;1.00;;
23702;SDS011;12030;50.376;8.762;2022-07-09T13:06:48;1.70;;;1.00;;
23702;SDS011;12030;50.376;8.762;2022-07-09T13:09:14;1.10;;;1.00;;
23702;SDS011;12030;50.376;8.762;2022-07-09T13:11:39;1.83;;;1.00;;
23702;SDS011;12030;50.376;8.762;2022-07-09T13:14:05;1.50;;;1.07;;
23702;SDS011;12030;50.376;8.762;2022-07-09T13:16:31;2.07;;;1.17;;
23702;SDS011;12030;50.376;8.762;2022-07-09T13:18:57;1.37;;;1.07;;
23702;SDS011;12030;50.376;8.762;2022-07-09T13:21:22;2.00;;;1.13;;
23702;SDS011;12030;50.376;8.762;2022-07-09T13:23:48;2.70;;;1.00;;
23702;SDS011;12030;50.376;8.762;2022-07-09T13:26:15;1.08;;;0.98;;
23702;SDS011;12030;50.376;8.762;2022-07-09T13:28:41;1.13;;;1.00;;
23702;SDS011;12030;50.376;8.762;2022-07-09T13:31:07;2.00;;;1.40;;
23702;SDS011;12030;50.376;8.762;2022-07-09T13:33:33;2.90;;;1.20;;
23702;SDS011;12030;50.376;8.762;2022-07-09T13:35:59;1.20;;;1.05;;
23702;SDS011;12030;50.376;8.762;2022-07-09T13:38:25;1.90;;;1.08;;
23702;SDS011;12030;50.376;8.762;2022-07-09T13:40:52;1.70;;;1.00;;
23702;SDS011;12030;50.376;8.762;2022-07-09T13:43:18;1.17;;;1.08;;
23702;SDS011;12030;50.376;8.762;2022-07-09T13:45:43;2.30;;;1.13;;
23702;SDS011;12030;50.376;8.762;2022-07-09T13:48:09;0.80;;;0.80;;
23702;SDS011;12030;50.376;8.762;2022-07-09T13:50:34;1.30;;;0.97;;
23702;SDS011;12030;50.376;8.762;2022-07-09T13:53:01;1.40;;;1.07;;
23702;SDS011;12030;50.376;8.762;2022-07-09T13:55:27;1.60;;;0.90;;
23702;SDS011;12030;50.376;8.762;2022-07-09T13:57:54;1.23;;;0.80;;
23702;SDS011;12030;50.376;8.762;2022-07-09T14:00:19;1.70;;;0.90;;
23702;SDS011;12030;50.376;8.762;2022-07-09T14:02:46;1.50;;;1.00;;
23702;SDS011;12030;50.376;8.762;2022-07-09T14:05:12;2.42;;;1.00;;
23702;SDS011;12030;50.376;8.762;2022-07-09T14:07:37;1.00;;;0.90;;
23702;SDS011;12030;50.376;8.762;2022-07-09T14:10:03;2.00;;;1.00;;
23702;SDS011;12030;50.376;8.762;2022-07-09T14:12:29;1.35;;;1.00;;
23702;SDS011;12030;50.376;8.762;2022-07-09T14:14:54;0.83;;;0.80;;
23702;SDS011;12030;50.376;8.762;2022-07-09T14:17:20;1.20;;;0.83;;
23702;SDS011;12030;50.376;8.762;2022-07-09T14:19:45;1.33;;;0.90;;
23702;SDS011;12030;50.376;8.762;2022-07-09T14:22:11;1.50;;;0.80;;
23702;SDS011;12030;50.376;8.762;2022-07-09T14:24:37;1.88;;;0.80;;
23702;SDS011;12030;50.376;8.762;2022-07-09T14:27:03;1.08;;;0.98;;
23702;SDS011;12030;50.376;8.762;2022-07-09T14:29:29;3.13;;;1.23;;
23702;SDS011;12030;50.376;8.762;2022-07-09T14:31:55;2.60;;;0.93;;
23702;SDS011;12030;50.376;8.762;2022-07-09T14:34:20;2.47;;;1.00;;
23702;SDS011;12030;50.376;8.762;2022-07-09T14:36:48;3.13;;;0.87;;
23702;SDS011;12030;50.376;8.762;2022-07-09T14:39:17;1.50;;;0.73;;
23702;SDS011;12030;50.376;8.762;2022-07-09T14:41:43;0.98;;;0.80;;
23702;SDS011;12030;50.376;8.762;2022-07-09T14:44:09;1.30;;;0.80;;
23702;SDS011;12030;50.376;8.762;2022-07-09T14:46:35;1.25;;;0.90;;
23702;SDS011;12030;50.376;8.762;2022-07-09T14:49:01;1.23;;;0.98;;
23702;SDS011;12030;50.376;8.762;2022-07-09T14:51:27;0.98;;;0.80;;